Time;durP1;ratioP1;P1;durP2;ratioP2;P2;SDS_P1;SDS_P2;PMS_P1;PMS_P2;Temp;Humidity;BMP_temperature;BMP_pressure;BME280_temperature;BME280_humidity;BME280_pressure;Samples;Min_cycle;Max_cycle;Signal;HPM_P1;HPM_P2
2023/12/24 00:00:37;;;;;;;2.67;0.73;;;8.00;31.80;;;;;;5013407;28;20592;-70
2023/12/24 00:03:03;;;;;;;1.70;0.60;;;8.10;31.80;;;;;;5013396;28;20226;-70
2023/12/24 00:05:29;;;;;;;4.10;0.60;;;8.10;31.50;;;;;;5013299;28;20552;-70
2023/12/24 00:07:55;;;;;;;2.00;0.80;;;8.10;31.10;;;;;;5012860;28;20415;-70
2023/12/24 00:10:20;;;;;;;1.70;0.70;;;8.10;30.70;;;;;;5013335;28;20225;-71
2023/12/24 00:12:46;;;;;;;1.87;0.80;;;8.10;31.80;;;;;;5018674;28;20207;-69
2023/12/24 00:15:11;;;;;;;1.80;0.80;;;8.20;30.70;;;;;;5033120;28;20557;-71
2023/12/24 00:17:37;;;;;;;1.70;0.60;;;8.20;30.60;;;;;;5033101;28;20622;-69
2023/12/24 00:20:03;;;;;;;1.97;0.70;;;8.10;31.10;;;;;;5029743;28;20180;-70
2023/12/24 00:22:29;;;;;;;1.53;0.57;;;8.20;31.00;;;;;;5013387;28;20286;-70
2023/12/24 00:24:55;;;;;;;1.50;0.50;;;8.20;31.30;;;;;;5012187;28;20521;-69
2023/12/24 00:27:20;;;;;;;1.53;0.53;;;8.10;30.90;;;;;;5013303;28;20423;-70
2023/12/24 00:29:46;;;;;;;1.90;0.60;;;8.10;31.60;;;;;;5012884;28;20461;-71
2023/12/24 00:32:11;;;;;;;1.70;0.70;;;8.10;31.60;;;;;;5029438;28;20216;-70
2023/12/24 00:34:37;;;;;;;1.80;0.80;;;8.10;31.20;;;;;;5032693;28;20252;-71
2023/12/24 00:37:03;;;;;;;1.70;0.60;;;8.10;31.10;;;;;;5033138;28;20194;-69
2023/12/24 00:39:28;;;;;;;1.50;0.50;;;8.20;31.40;;;;;;5032640;28;20549;-70
2023/12/24 00:41:54;;;;;;;1.60;0.50;;;8.10;30.60;;;;;;5032312;28;20212;-69
2023/12/24 00:44:19;;;;;;;1.40;0.50;;;8.10;30.40;;;;;;5015998;28;20270;-70
2023/12/24 00:46:45;;;;;;;1.50;0.50;;;8.10;30.60;;;;;;5012559;28;20209;-69
2023/12/24 00:49:11;;;;;;;1.87;0.63;;;8.20;30.40;;;;;;5012665;28;20198;-69
2023/12/24 00:51:43;;;;;;;1.73;0.73;;;8.20;30.80;;;;;;5012482;28;20546;-69
2023/12/24 00:54:10;;;;;;;2.03;0.70;;;8.20;30.40;;;;;;5012951;28;20414;-69
2023/12/24 00:56:35;;;;;;;1.50;0.50;;;8.20;30.40;;;;;;5011108;28;20453;-69
2023/12/24 00:59:01;;;;;;;1.70;0.60;;;8.20;30.20;;;;;;5012254;28;20476;-69
2023/12/24 01:01:26;;;;;;;1.50;0.50;;;8.20;30.40;;;;;;5012522;28;20205;-70
2023/12/24 01:03:52;;;;;;;1.60;0.60;;;8.20;30.40;;;;;;5080984;23;20227;-70
2023/12/24 01:06:17;;;;;;;1.90;0.73;;;8.20;30.40;;;;;;4992636;28;20200;-71
2023/12/24 01:08:43;;;;;;;2.57;0.80;;;8.20;30.40;;;;;;4992267;28;20180;-71
2023/12/24 01:11:09;;;;;;;1.80;0.60;;;8.20;29.90;;;;;;4992346;28;20187;-71
2023/12/24 01:13:34;;;;;;;1.50;0.50;;;8.20;30.00;;;;;;4991140;28;20206;-70
2023/12/24 01:16:03;;;;;;;3.30;0.57;;;8.20;29.80;;;;;;4991167;28;20180;-71
2023/12/24 01:18:29;;;;;;;1.50;0.57;;;8.20;29.80;;;;;;4991091;28;20183;-71
2023/12/24 01:20:56;;;;;;;1.60;0.60;;;8.20;29.80;;;;;;4991401;28;20890;-70
2023/12/24 01:23:22;;;;;;;1.90;0.70;;;8.30;29.70;;;;;;4992330;28;20193;-71
2023/12/24 01:25:47;;;;;;;2.50;1.00;;;8.30;29.20;;;;;;4992229;28;20474;-71
2023/12/24 01:28:13;;;;;;;1.90;0.83;;;8.30;29.20;;;;;;4991221;28;20494;-71
2023/12/24 01:30:39;;;;;;;1.63;0.63;;;8.20;29.50;;;;;;4992098;28;20216;-71
2023/12/24 01:33:04;;;;;;;1.50;0.40;;;8.30;28.90;;;;;;4992231;28;20211;-71
2023/12/24 01:35:29;;;;;;;1.60;0.70;;;8.20;28.60;;;;;;4992154;28;20614;-71
2023/12/24 01:37:55;;;;;;;2.00;0.70;;;8.30;28.30;;;;;;4992427;28;20659;-70
2023/12/24 01:40:21;;;;;;;3.33;0.90;;;8.30;28.40;;;;;;4992236;28;20226;-71
2023/12/24 01:42:47;;;;;;;1.87;0.70;;;8.30;28.30;;;;;;4992289;28;20196;-70
2023/12/24 01:45:12;;;;;;;1.50;0.60;;;8.30;28.30;;;;;;4992174;28;20179;-71
2023/12/24 01:47:41;;;;;;;1.60;0.70;;;8.30;28.10;;;;;;4992123;28;20485;-71
2023/12/24 01:50:07;;;;;;;1.87;0.70;;;8.30;28.20;;;;;;4990469;28;20236;-72
2023/12/24 01:52:33;;;;;;;2.47;1.10;;;8.30;28.20;;;;;;4992124;28;20798;-71
2023/12/24 01:54:59;;;;;;;1.80;0.50;;;8.30;28.50;;;;;;4992109;28;20424;-71
2023/12/24 01:57:25;;;;;;;1.97;0.73;;;8.30;28.20;;;;;;4991021;28;20423;-70
2023/12/24 01:59:52;;;;;;;1.87;0.77;;;8.30;28.60;;;;;;4991877;28;20506;-71
2023/12/24 02:02:18;;;;;;;1.70;0.63;;;8.30;27.80;;;;;;4991605;28;20446;-71
2023/12/24 02:04:44;;;;;;;1.70;0.60;;;8.30;27.50;;;;;;4991966;28;20541;-71
2023/12/24 02:07:11;;;;;;;1.50;0.50;;;8.30;27.70;;;;;;4990915;28;20800;-71
2023/12/24 02:09:36;;;;;;;1.70;0.70;;;8.30;27.40;;;;;;4991678;28;20469;-71
2023/12/24 02:12:02;;;;;;;2.57;0.73;;;8.30;27.80;;;;;;4990610;28;20502;-71
2023/12/24 02:14:28;;;;;;;1.60;0.60;;;8.30;27.30;;;;;;4990521;28;20590;-71
2023/12/24 02:16:58;;;;;;;1.90;0.63;;;8.30;27.80;;;;;;4990559;28;20423;-71
2023/12/24 02:19:24;;;;;;;1.53;0.50;;;8.30;27.60;;;;;;4991732;28;20184;-70
2023/12/24 02:21:50;;;;;;;1.60;0.60;;;8.30;27.10;;;;;;4991855;28;20458;-71
2023/12/24 02:24:16;;;;;;;1.70;0.50;;;8.30;27.40;;;;;;4991561;28;20860;-71
2023/12/24 02:27:08;;;;;;;2.80;0.73;;;8.30;27.60;;;;;;4991686;28;20560;-70
2023/12/24 02:29:41;;;;;;;1.60;0.60;;;8.30;27.20;;;;;;4991497;28;20845;-70
2023/12/24 02:32:17;;;;;;;1.80;0.70;;;;;;;;;;4994187;28;20427;-72
2023/12/24 02:34:45;;;;;;;2.27;0.70;;;;;;;;;;4995516;28;20414;-68
2023/12/24 02:37:11;;;;;;;1.73;0.70;;;;;;;;;;4995204;28;20776;-71
2023/12/24 02:39:42;;;;;;;1.83;0.70;;;;;;;;;;4994718;28;20855;-71
2023/12/24 02:42:08;;;;;;;1.70;0.50;;;;;;;;;;4994906;28;20587;-71
2023/12/24 02:44:36;;;;;;;1.90;0.77;;;;;;;;;;4995187;28;20421;-71
2023/12/24 02:47:02;;;;;;;1.90;0.60;;;;;;;;;;4995118;28;20467;-71
2023/12/24 02:49:28;;;;;;;2.00;0.70;;;;;;;;;;4994595;28;20462;-71
2023/12/24 02:51:54;;;;;;;1.67;0.70;;;;;;;;;;4993794;28;20427;-70
2023/12/24 02:54:20;;;;;;;1.70;0.63;;;;;;;;;;4994983;28;20415;-69
2023/12/24 02:56:46;;;;;;;2.60;1.17;;;8.40;26.00;;;;;;4995062;28;20505;-69
2023/12/24 02:59:12;;;;;;;1.60;0.60;;;;;;;;;;4994420;28;20426;-71
2023/12/24 03:01:38;;;;;;;1.70;0.70;;;;;;;;;;4993249;28;20211;-71
2023/12/24 03:04:04;;;;;;;2.07;1.00;;;;;;;;;;4994786;28;20542;-71
2023/12/24 03:06:29;;;;;;;2.00;0.50;;;8.40;25.50;;;;;;4994800;28;20723;-71
2023/12/24 03:08:55;;;;;;;1.70;0.80;;;8.40;25.80;;;;;;4994443;28;20415;-70
2023/12/24 03:11:20;;;;;;;1.73;0.60;;;8.40;26.50;;;;;;4994697;28;20207;-70
2023/12/24 03:13:46;;;;;;;1.90;0.60;;;8.30;26.40;;;;;;4993015;28;20209;-70
2023/12/24 03:16:12;;;;;;;1.80;0.70;;;8.30;26.40;;;;;;4994458;28;20180;-71
2023/12/24 03:18:37;;;;;;;2.37;1.00;;;;;;;;;;4994653;28;20171;-71
2023/12/24 03:21:04;;;;;;;2.57;0.67;;;;;;;;;;4992264;28;20190;-71
2023/12/24 03:23:30;;;;;;;2.77;0.67;;;;;;;;;;4994378;28;20438;-71
2023/12/24 03:25:56;;;;;;;1.60;0.60;;;;;;;;;;4994335;28;20501;-71
2023/12/24 03:28:22;;;;;;;2.43;1.07;;;;;;;;;;4994430;28;20411;-71
2023/12/24 03:30:48;;;;;;;1.67;0.70;;;;;;;;;;4994189;28;20505;-71
2023/12/24 03:33:14;;;;;;;1.93;0.70;;;;;;;;;;4994221;28;20439;-70
2023/12/24 03:35:43;;;;;;;2.83;0.90;;;;;;;;;;4994333;28;20414;-71
2023/12/24 03:38:09;;;;;;;2.03;0.63;;;;;;;;;;4994206;28;20416;-71
2023/12/24 03:40:34;;;;;;;1.77;0.67;;;;;;;;;;4993733;28;20427;-71
2023/12/24 03:43:00;;;;;;;1.70;0.70;;;;;;;;;;4993111;28;20494;-71
2023/12/24 03:45:26;;;;;;;1.60;0.70;;;;;;;;;;4992788;28;21009;-71
2023/12/24 03:47:52;;;;;;;1.73;0.60;;;;;;;;;;4992789;28;20425;-72
2023/12/24 03:50:18;;;;;;;1.80;0.60;;;;;;;;;;4993679;28;20565;-72
2023/12/24 03:52:44;;;;;;;2.13;0.70;;;;;;;;;;4993945;28;20427;-71
2023/12/24 03:55:10;;;;;;;3.13;0.93;;;;;;;;;;4993851;28;20422;-71
2023/12/24 03:57:36;;;;;;;1.70;0.80;;;;;;;;;;4993820;28;20514;-71
2023/12/24 04:00:02;;;;;;;1.63;0.70;;;;;;;;;;4992394;28;20474;-71
2023/12/24 04:02:28;;;;;;;1.90;0.70;;;;;;;;;;4992371;28;20548;-71
2023/12/24 04:04:54;;;;;;;1.80;0.70;;;;;;;;;;4993835;28;20462;-69
2023/12/24 04:07:20;;;;;;;1.77;0.80;;;;;;;;;;4993486;28;20422;-69
2023/12/24 04:09:46;;;;;;;1.70;0.60;;;;;;;;;;4973750;28;20827;-69
2023/12/24 04:12:12;;;;;;;2.00;0.73;;;;;;;;;;4973790;28;20809;-70
2023/12/24 04:14:39;;;;;;;1.70;0.80;;;;;;;;;;4974153;28;20417;-69
2023/12/24 04:17:05;;;;;;;2.27;0.53;;;;;;;;;;4974085;28;20773;-69
2023/12/24 04:19:31;;;;;;;1.90;0.90;;;;;;;;;;4990501;28;20839;-69
2023/12/24 04:21:57;;;;;;;1.80;0.60;;;;;;;;;;4992038;28;20438;-69
2023/12/24 04:24:23;;;;;;;1.70;0.70;;;;;;;;;;4993388;28;20418;-69
2023/12/24 04:26:49;;;;;;;2.00;0.93;;;;;;;;;;4993671;28;20415;-69
2023/12/24 04:29:15;;;;;;;1.70;0.70;;;;;;;;;;4993150;28;20450;-70
2023/12/24 04:31:41;;;;;;;1.90;0.60;;;;;;;;;;4992978;28;20414;-69
2023/12/24 04:34:07;;;;;;;1.60;0.60;;;;;;;;;;4993145;28;20784;-69
2023/12/24 04:36:34;;;;;;;1.73;0.67;;;;;;;;;;4992904;28;20412;-69
2023/12/24 04:39:00;;;;;;;2.17;0.87;;;;;;;;;;4992579;28;20412;-69
2023/12/24 04:41:28;;;;;;;2.50;0.77;;;;;;;;;;4993225;28;20442;-69
2023/12/24 04:43:54;;;;;;;1.70;0.70;;;;;;;;;;4992818;28;20446;-68
2023/12/24 04:46:20;;;;;;;1.70;0.73;;;;;;;;;;4992981;28;20517;-69
2023/12/24 04:48:46;;;;;;;1.70;0.73;;;;;;;;;;4992626;28;20440;-69
2023/12/24 04:51:12;;;;;;;1.83;0.60;;;;;;;;;;4992891;28;20789;-69
2023/12/24 04:53:38;;;;;;;2.20;1.00;;;;;;;;;;4992578;28;20477;-69
2023/12/24 04:56:04;;;;;;;1.70;0.80;;;;;;;;;;4992738;28;20431;-69
2023/12/24 04:58:30;;;;;;;1.83;0.73;;;;;;;;;;4992751;28;20463;-70
2023/12/24 05:00:57;;;;;;;1.97;0.70;;;;;;;;;;4992543;28;20423;-69
2023/12/24 05:03:23;;;;;;;1.80;0.73;;;;;;;;;;4992362;28;20553;-70
2023/12/24 05:05:49;;;;;;;2.00;0.60;;;;;;;;;;4992484;28;20435;-71
2023/12/24 05:08:15;;;;;;;1.70;0.80;;;;;;;;;;4992783;28;20423;-70
2023/12/24 05:10:41;;;;;;;1.90;0.60;;;;;;;;;;4990900;28;20485;-73
2023/12/24 05:13:07;;;;;;;1.60;0.60;;;;;;;;;;4985245;28;20476;-70
2023/12/24 05:15:33;;;;;;;3.77;0.70;;;;;;;;;;4973048;28;20943;-70
2023/12/24 05:17:59;;;;;;;2.10;0.80;;;;;;;;;;4984980;28;20760;-70
2023/12/24 05:20:25;;;;;;;2.73;0.80;;;;;;;;;;4991003;28;20522;-70
2023/12/24 05:22:51;;;;;;;1.57;0.57;;;;;;;;;;4992460;28;20447;-69
2023/12/24 05:25:17;;;;;;;1.70;0.60;;;;;;;;;;4991219;28;20423;-68
2023/12/24 05:27:43;;;;;;;1.70;0.77;;;;;;;;;;4992484;28;20427;-69
2023/12/24 05:30:09;;;;;;;1.97;0.83;;;;;;;;;;4991971;28;20494;-69
2023/12/24 05:32:35;;;;;;;1.83;0.70;;;;;;;;;;4992010;28;20516;-70
2023/12/24 05:35:01;;;;;;;1.80;0.63;;;;;;;;;;4992365;28;20411;-70
2023/12/24 05:37:30;;;;;;;1.50;0.50;;;;;;;;;;4992362;28;20415;-69
2023/12/24 05:39:55;;;;;;;1.87;0.73;;;;;;;;;;4992289;28;20419;-70
2023/12/24 05:42:22;;;;;;;1.50;0.60;;;;;;;;;;4992110;28;20967;-70
2023/12/24 05:44:48;;;;;;;1.73;0.83;;;;;;;;;;4992714;28;20985;-71
2023/12/24 05:47:13;;;;;;;1.70;0.70;;;;;;;;;;4992281;28;20435;-70
2023/12/24 05:49:39;;;;;;;1.73;0.87;;;;;;;;;;4992019;28;21000;-71
2023/12/24 05:52:05;;;;;;;1.80;0.83;;;;;;;;;;4992181;28;20470;-71
2023/12/24 05:54:31;;;;;;;1.90;1.00;;;;;;;;;;4992019;28;20425;-71
2023/12/24 05:56:57;;;;;;;2.10;0.90;;;;;;;;;;4990994;28;20419;-71
2023/12/24 05:59:23;;;;;;;1.70;0.70;;;;;;;;;;4990544;28;20422;-71
2023/12/24 06:01:49;;;;;;;1.80;0.77;;;;;;;;;;4991925;28;20444;-70
2023/12/24 06:04:15;;;;;;;2.07;1.10;;;;;;;;;;4990630;28;20538;-71
2023/12/24 06:06:41;;;;;;;2.13;0.80;;;;;;;;;;4993872;28;20906;-71
2023/12/24 06:09:07;;;;;;;2.20;1.37;;;;;;;;;;4995514;28;20783;-70
2023/12/24 06:11:33;;;;;;;2.73;0.70;;;;;;;;;;4995781;28;20414;-71
2023/12/24 06:13:59;;;;;;;2.27;0.77;;;;;;;;;;4995739;28;20469;-70
2023/12/24 06:16:25;;;;;;;1.70;0.70;;;;;;;;;;4995543;28;20446;-70
2023/12/24 06:18:51;;;;;;;2.13;0.70;;;;;;;;;;4979511;28;20507;-71
2023/12/24 06:21:17;;;;;;;2.63;0.60;;;;;;;;;;4981182;28;20920;-71
2023/12/24 06:23:43;;;;;;;1.60;0.60;;;;;;;;;;4988567;28;20529;-72
2023/12/24 06:26:09;;;;;;;1.80;0.70;;;;;;;;;;4976049;28;20978;-72
2023/12/24 06:28:35;;;;;;;1.60;0.50;;;;;;;;;;4976466;28;20889;-70
2023/12/24 06:31:01;;;;;;;1.63;0.73;;;;;;;;;;4975508;28;20512;-70
2023/12/24 06:33:27;;;;;;;1.80;0.70;;;;;;;;;;4975874;28;20467;-71
2023/12/24 06:35:53;;;;;;;1.73;0.80;;;;;;;;;;4984634;28;20425;-70
2023/12/24 06:38:19;;;;;;;3.27;0.87;;;;;;;;;;4995415;28;20411;-69
2023/12/24 06:40:45;;;;;;;1.77;0.60;;;;;;;;;;4995106;28;20412;-71
2023/12/24 06:43:11;;;;;;;1.70;0.70;;;;;;;;;;4995018;28;20444;-70
2023/12/24 06:45:37;;;;;;;1.80;0.50;;;;;;;;;;4995501;28;20926;-69
2023/12/24 06:48:03;;;;;;;1.70;0.67;;;;;;;;;;4995251;28;20412;-71
2023/12/24 06:50:29;;;;;;;1.90;0.87;;;;;;;;;;4994640;28;20471;-71
2023/12/24 06:52:56;;;;;;;1.80;0.70;;;;;;;;;;4995209;28;20446;-71
2023/12/24 06:55:22;;;;;;;1.50;0.60;;;;;;;;;;4995090;28;20439;-75
2023/12/24 06:57:48;;;;;;;1.50;0.50;;;;;;;;;;4993590;28;20910;-72
2023/12/24 07:00:14;;;;;;;1.50;0.57;;;;;;;;;;4993304;28;20486;-71
2023/12/24 07:02:40;;;;;;;1.60;0.80;;;;;;;;;;5018493;23;20506;-71
2023/12/24 07:05:06;;;;;;;2.43;1.10;;;;;;;;;;4994563;28;20414;-70
2023/12/24 07:07:32;;;;;;;2.13;0.63;;;;;;;;;;4993174;28;20396;-70
2023/12/24 07:09:58;;;;;;;1.80;0.60;;;;;;;;;;4989827;28;20460;-71
2023/12/24 07:12:25;;;;;;;2.60;0.57;;;;;;;;;;4978989;28;20414;-70
2023/12/24 07:14:50;;;;;;;2.30;0.70;;;;;;;;;;4994403;28;20411;-70
2023/12/24 07:17:16;;;;;;;2.37;0.80;;;;;;;;;;4994201;28;20426;-69
2023/12/24 07:19:42;;;;;;;1.43;0.50;;;;;;;;;;4993894;28;20946;-70
2023/12/24 07:22:08;;;;;;;1.57;0.50;;;;;;;;;;4994010;28;20419;-69
2023/12/24 07:24:34;;;;;;;1.73;0.67;;;;;;;;;;4994202;28;20434;-69
2023/12/24 07:27:01;;;;;;;1.60;0.77;;;;;;;;;;4994146;28;20412;-70
2023/12/24 07:29:27;;;;;;;1.50;0.50;;;;;;;;;;4993620;28;20463;-70
2023/12/24 07:31:53;;;;;;;1.80;0.50;;;;;;;;;;4993119;28;20458;-71
2023/12/24 07:34:19;;;;;;;1.70;0.57;;;;;;;;;;4994528;28;20516;-71
2023/12/24 07:36:45;;;;;;;1.50;0.57;;;;;;;;;;4994508;28;20412;-72
2023/12/24 07:39:11;;;;;;;1.60;0.60;;;;;;;;;;4994021;28;20412;-71
2023/12/24 07:41:37;;;;;;;3.00;0.67;;;;;;;;;;4992860;28;20428;-70
2023/12/24 07:44:03;;;;;;;1.70;0.80;;;;;;;;;;4993357;28;20509;-70
2023/12/24 07:46:29;;;;;;;1.80;0.97;;;;;;;;;;4992631;28;20420;-70
2023/12/24 07:48:55;;;;;;;1.50;0.60;;;;;;;;;;4993862;28;20415;-70
2023/12/24 07:51:21;;;;;;;1.60;0.70;;;;;;;;;;4994560;28;20735;-71
2023/12/24 07:53:47;;;;;;;1.70;0.70;;;;;;;;;;4993919;28;20448;-70
2023/12/24 07:56:13;;;;;;;1.50;0.50;;;;;;;;;;4994019;28;20416;-73
2023/12/24 07:58:39;;;;;;;2.73;0.63;;;;;;;;;;4995256;28;20842;-69
2023/12/24 08:01:05;;;;;;;1.57;0.53;;;;;;;;;;4995108;28;20408;-69
2023/12/24 08:03:31;;;;;;;1.50;0.50;;;;;;;;;;4994941;28;20451;-69
2023/12/24 08:05:57;;;;;;;1.50;0.40;;;;;;;;;;4994276;28;20432;-69
2023/12/24 08:08:23;;;;;;;1.50;0.50;;;;;;;;;;4990597;28;20420;-70
2023/12/24 08:10:49;;;;;;;1.73;0.70;;;;;;;;;;4978008;28;20470;-70
2023/12/24 08:13:15;;;;;;;1.50;0.60;;;;;;;;;;4992218;28;20455;-71
2023/12/24 08:15:41;;;;;;;1.77;0.50;;;;;;;;;;4987600;28;20430;-70
2023/12/24 08:18:07;;;;;;;1.70;0.80;;;;;;;;;;4989240;28;20428;-68
2023/12/24 08:20:33;;;;;;;1.60;0.67;;;;;;;;;;4990207;28;20466;-71
2023/12/24 08:22:59;;;;;;;1.70;0.60;;;;;;;;;;4989891;28;20432;-72
2023/12/24 08:25:25;;;;;;;3.50;1.37;;;;;;;;;;4988847;28;20498;-68
2023/12/24 08:27:51;;;;;;;3.60;1.73;;;;;;;;;;4990566;28;21084;-72
2023/12/24 08:30:18;;;;;;;3.80;0.57;;;;;;;;;;4988183;28;20470;-71
2023/12/24 08:32:44;;;;;;;1.50;0.50;;;;;;;;;;4988710;28;20436;-68
2023/12/24 08:35:15;;;;;;;1.60;0.50;;;;;;;;;;4988932;28;20527;-72
2023/12/24 08:37:41;;;;;;;1.60;0.57;;;;;;;;;;4990166;28;20420;-70
2023/12/24 08:40:08;;;;;;;1.80;0.60;;;;;;;;;;4992198;28;20554;-73
2023/12/24 08:42:34;;;;;;;2.47;0.70;;;;;;;;;;4992586;28;20891;-69
2023/12/24 08:45:00;;;;;;;1.60;0.50;;;;;;;;;;4992853;28;20495;-71
2023/12/24 08:47:26;;;;;;;1.67;0.67;;;;;;;;;;4993393;28;20420;-70
2023/12/24 08:49:52;;;;;;;1.50;0.50;;;;;;;;;;4992716;28;20455;-70
2023/12/24 08:52:18;;;;;;;1.60;0.60;;;;;;;;;;4993488;28;20482;-70
2023/12/24 08:54:44;;;;;;;1.70;0.67;;;;;;;;;;4994221;28;20435;-70
2023/12/24 08:57:11;;;;;;;1.60;0.50;;;;;;;;;;4991222;28;20428;-70
2023/12/24 08:59:37;;;;;;;1.60;0.60;;;;;;;;;;4990918;28;20501;-69
2023/12/24 09:02:03;;;;;;;2.30;0.87;;;;;;;;;;4992255;28;20966;-69
2023/12/24 09:04:29;;;;;;;1.57;0.57;;;;;;;;;;4992239;28;20463;-70
2023/12/24 09:06:55;;;;;;;1.70;0.73;;;;;;;;;;4992593;28;20412;-69
2023/12/24 09:09:20;;;;;;;2.00;0.80;;;;;;;;;;4992111;28;20489;-68
2023/12/24 09:11:47;;;;;;;1.63;0.70;;;;;;;;;;4992798;28;20451;-70
2023/12/24 09:14:13;;;;;;;1.70;0.67;;;;;;;;;;4991232;28;20446;-70
2023/12/24 09:16:39;;;;;;;1.80;0.70;;;;;;;;;;4992157;28;20416;-70
2023/12/24 09:19:05;;;;;;;1.87;0.50;;;;;;;;;;4991403;28;20502;-70
2023/12/24 09:21:31;;;;;;;2.20;0.67;;;;;;;;;;4992262;28;20412;-70
2023/12/24 09:23:58;;;;;;;1.50;0.50;;;;;;;;;;4992174;28;20430;-70
2023/12/24 09:26:24;;;;;;;1.67;0.60;;;;;;;;;;4992292;28;20439;-70
2023/12/24 09:28:50;;;;;;;1.77;0.80;;;;;;;;;;4991905;28;20514;-74
2023/12/24 09:31:16;;;;;;;1.70;0.60;;;;;;;;;;4995065;28;20455;-71
2023/12/24 09:33:42;;;;;;;1.80;0.63;;;;;;;;;;4992681;28;21006;-70
2023/12/24 09:36:08;;;;;;;1.87;0.67;;;;;;;;;;4992609;28;20891;-70
2023/12/24 09:38:36;;;;;;;3.07;0.60;;;;;;;;;;4993186;28;20940;-70
2023/12/24 09:41:02;;;;;;;1.70;0.50;;;;;;;;;;4994219;28;20481;-70
2023/12/24 09:43:33;;;;;;;1.87;0.80;;;;;;;;;;4998913;28;20435;-70
2023/12/24 09:45:59;;;;;;;1.60;0.50;;;;;;;;;;4998881;28;20412;-70
2023/12/24 09:48:25;;;;;;;1.60;0.50;;;;;;;;;;4998840;28;20429;-69
2023/12/24 09:50:51;;;;;;;1.87;0.60;;;;;;;;;;4997271;28;20538;-69
2023/12/24 09:53:17;;;;;;;1.80;0.70;;;;;;;;;;4995998;28;20806;-69
2023/12/24 09:55:43;;;;;;;1.70;0.60;;;;;;;;;;4997713;28;20828;-73
2023/12/24 09:58:09;;;;;;;1.80;0.70;;;;;;;;;;4997180;28;20983;-72
2023/12/24 10:00:35;;;;;;;1.80;0.50;;;;;;;;;;4997486;28;20945;-69
2023/12/24 10:03:01;;;;;;;1.60;0.50;;;;;;;;;;4995659;28;20939;-69
2023/12/24 10:05:27;;;;;;;1.50;0.53;;;;;;;;;;4995707;28;20519;-70
2023/12/24 10:07:53;;;;;;;1.50;0.50;;;;;;;;;;4995489;28;20432;-71
2023/12/24 10:10:29;;;;;;;1.90;0.60;;;;;;;;;;4990820;28;20504;-69
2023/12/24 10:13:07;;;;;;;1.50;0.43;;;;;;;;;;4995378;28;20446;-69
2023/12/24 10:15:38;;;;;;;1.50;0.50;;;;;;;;;;4995255;28;20403;-69
2023/12/24 10:18:22;;;;;;;1.50;0.40;;;;;;;;;;4994851;28;20416;-70
2023/12/24 10:20:49;;;;;;;2.53;0.90;;;;;;;;;;4995391;28;20842;-69
2023/12/24 10:23:15;;;;;;;2.00;0.73;;;;;;;;;;4995510;28;20434;-69
2023/12/24 10:25:41;;;;;;;2.57;0.90;;;;;;;;;;4995224;28;20403;-69
2023/12/24 10:28:07;;;;;;;1.57;0.60;;;;;;;;;;4995825;28;20407;-69
2023/12/24 10:30:35;;;;;;;2.80;1.07;;;;;;;;;;4995031;28;20462;-69
2023/12/24 10:33:12;;;;;;;1.90;0.80;;;;;;;;;;4995174;28;20955;-70
2023/12/24 10:35:38;;;;;;;2.40;0.87;;;;;;;;;;4995057;28;20411;-69
2023/12/24 10:38:16;;;;;;;1.80;0.80;;;;;;;;;;4995034;28;20419;-70
2023/12/24 10:40:42;;;;;;;1.50;0.50;;;;;;;;;;4994774;28;20515;-71
2023/12/24 10:43:08;;;;;;;1.63;0.60;;;;;;;;;;4994767;28;20435;-70
2023/12/24 10:45:34;;;;;;;1.70;0.80;;;;;;;;;;4994751;28;20781;-69
2023/12/24 10:48:00;;;;;;;2.77;1.13;;;;;;;;;;4994724;28;20420;-70
2023/12/24 10:50:26;;;;;;;1.63;0.60;;;;;;;;;;4994619;28;20498;-69
2023/12/24 10:52:52;;;;;;;5.63;2.07;;;;;;;;;;4994503;28;20468;-69
2023/12/24 10:55:18;;;;;;;1.60;0.50;;;;;;;;;;4995070;28;20402;-69
2023/12/24 10:57:51;;;;;;;1.63;0.63;;;;;;;;;;4994643;28;20506;-68
2023/12/24 11:00:18;;;;;;;1.60;0.67;;;;;;;;;;4994610;28;20896;-72
2023/12/24 11:02:46;;;;;;;1.80;0.70;;;;;;;;;;4994471;28;20744;-70
2023/12/24 11:05:12;;;;;;;2.60;0.80;;;;;;;;;;4994865;28;20498;-70
2023/12/24 11:07:47;;;;;;;1.93;0.67;;;;;;;;;;4994803;28;20470;-69
2023/12/24 11:10:37;;;;;;;1.83;0.60;;;;;;;;;;4994378;28;20463;-70
2023/12/24 11:13:07;;;;;;;1.80;0.80;;;;;;;;;;4994348;28;20442;-68
2023/12/24 11:15:43;;;;;;;1.70;0.60;;;;;;;;;;4994091;28;20888;-68
2023/12/24 11:18:09;;;;;;;1.47;0.43;;;;;;;;;;4994261;28;20430;-68
2023/12/24 11:20:39;;;;;;;1.70;0.60;;;;;;;;;;4994073;28;20415;-69
2023/12/24 11:23:05;;;;;;;1.80;0.80;;;;;;;;;;4994418;28;20853;-69
2023/12/24 11:25:38;;;;;;;2.00;0.87;;;;;;;;;;4992701;28;20424;-68
2023/12/24 11:28:05;;;;;;;1.50;0.50;;;;;;;;;;4994092;28;20498;-68
2023/12/24 11:30:50;;;;;;;1.70;0.80;;;;;;;;;;4994306;28;20491;-68
2023/12/24 11:33:28;;;;;;;1.80;0.60;;;;;;;;;;4994144;28;20434;-69
2023/12/24 11:35:56;;;;;;;1.60;0.53;;;;;;;;;;4994073;28;20933;-68
2023/12/24 11:38:33;;;;;;;1.90;0.60;;;;;;;;;;4994434;28;20732;-72
2023/12/24 11:41:06;;;;;;;1.80;0.70;;;;;;;;;;4994064;28;20903;-70
2023/12/24 11:43:32;;;;;;;1.80;0.63;;;;;;;;;;4993763;28;20948;-69
2023/12/24 11:45:58;;;;;;;1.90;0.80;;;;;;;;;;4994071;28;20420;-68
2023/12/24 11:48:28;;;;;;;1.83;0.70;;;;;;;;;;4994078;28;20901;-68
2023/12/24 11:51:12;;;;;;;1.70;0.70;;;;;;;;;;4992799;28;20820;-70
2023/12/24 11:53:39;;;;;;;2.20;1.20;;;;;;;;;;4988224;28;20448;-70
2023/12/24 11:56:17;;;;;;;2.27;1.13;;;;;;;;;;4993653;28;20915;-72
2023/12/24 11:58:49;;;;;;;1.80;0.73;;;;;;;;;;4996023;28;20429;-70
2023/12/24 12:01:24;;;;;;;2.13;0.80;;;;;;;;;;4997968;28;20424;-70
2023/12/24 12:03:54;;;;;;;2.17;0.70;;;;;;;;;;4995733;28;20462;-70
2023/12/24 12:06:20;;;;;;;4.33;0.80;;;;;;;;;;4994848;28;20430;-71
2023/12/24 12:08:46;;;;;;;1.90;0.80;;;;;;;;;;4993817;28;20825;-71
2023/12/24 12:11:12;;;;;;;1.83;0.80;;;;;;;;;;4993518;28;20604;-70
2023/12/24 12:13:38;;;;;;;2.33;0.90;;;;;;;;;;4993705;28;20902;-69
2023/12/24 12:16:04;;;;;;;1.77;0.77;;;;;;;;;;4993851;28;20409;-69
2023/12/24 12:18:30;;;;;;;1.80;0.63;;;11.30;23.60;;;;;;4993630;28;20412;-70
2023/12/24 12:20:56;;;;;;;2.07;0.83;;;;;;;;;;4992498;28;20436;-69
2023/12/24 12:23:22;;;;;;;1.70;0.77;;;;;;;;;;4994040;28;20205;-69
2023/12/24 12:25:48;;;;;;;1.50;0.50;;;;;;;;;;4994139;28;20428;-71
2023/12/24 12:28:14;;;;;;;1.60;0.73;;;;;;;;;;4993093;28;20453;-71
2023/12/24 12:30:40;;;;;;;3.63;0.93;;;;;;;;;;4993918;28;20460;-72
2023/12/24 12:33:06;;;;;;;1.70;0.80;;;;;;;;;;4992384;28;20450;-71
2023/12/24 12:35:32;;;;;;;1.80;0.60;;;;;;;;;;4994145;28;20785;-71
2023/12/24 12:37:58;;;;;;;1.80;0.70;;;;;;;;;;4993718;28;20777;-71
2023/12/24 12:40:24;;;;;;;1.80;0.67;;;;;;;;;;4994077;28;20416;-71
2023/12/24 12:42:50;;;;;;;1.50;0.50;;;;;;;;;;4993439;28;20945;-70
2023/12/24 12:45:16;;;;;;;1.80;0.80;;;;;;;;;;4993840;28;20430;-70
2023/12/24 12:47:42;;;;;;;1.80;0.67;;;;;;;;;;4993475;28;20427;-69
2023/12/24 12:50:08;;;;;;;1.50;0.50;;;;;;;;;;4991736;28;20553;-70
2023/12/24 12:52:35;;;;;;;1.70;0.60;;;;;;;;;;4992358;28;20871;-71
2023/12/24 12:55:02;;;;;;;1.93;0.73;;;;;;;;;;4994191;28;20431;-70
2023/12/24 12:57:29;;;;;;;1.60;0.60;;;;;;;;;;4993575;28;20415;-71
2023/12/24 13:00:08;;;;;;;2.00;0.73;;;;;;;;;;4992201;28;20427;-69
2023/12/24 13:02:34;;;;;;;2.77;0.90;;;;;;;;;;4992248;28;20407;-69
2023/12/24 13:05:00;;;;;;;2.00;0.77;;;;;;;;;;5051525;23;20587;-70
2023/12/24 13:07:30;;;;;;;1.40;0.40;;;;;;;;;;5034274;28;20430;-69
2023/12/24 13:09:56;;;;;;;3.30;1.30;;;;;;;;;;5026753;28;20455;-68
2023/12/24 13:12:22;;;;;;;1.93;0.60;;;;;;;;;;5017601;28;20433;-69
2023/12/24 13:14:56;;;;;;;2.00;0.70;;;;;;;;;;5017105;28;20514;-69
2023/12/24 13:17:22;;;;;;;1.43;0.50;;;;;;;;;;4996435;28;20413;-69
2023/12/24 13:19:49;;;;;;;1.60;0.70;;;;;;;;;;4995745;28;20987;-69
2023/12/24 13:22:15;;;;;;;1.87;0.63;;;;;;;;;;4991269;28;20459;-69
2023/12/24 13:24:41;;;;;;;1.53;0.60;;;;;;;;;;4989813;28;20465;-70
2023/12/24 13:27:08;;;;;;;1.63;0.60;;;;;;;;;;4990057;28;20804;-70
2023/12/24 13:29:35;;;;;;;2.77;0.80;;;;;;;;;;4978375;28;20460;-70
2023/12/24 13:32:01;;;;;;;1.70;0.73;;;;;;;;;;4984264;28;20420;-69
2023/12/24 13:34:29;;;;;;;1.93;0.70;;;;;;;;;;4994051;28;20432;-68
2023/12/24 13:36:55;;;;;;;2.23;1.00;;;;;;;;;;4993467;28;20474;-69
2023/12/24 13:39:21;;;;;;;2.70;1.10;;;;;;;;;;4992681;28;20420;-69
2023/12/24 13:41:47;;;;;;;1.90;0.83;;;;;;;;;;4993753;28;20419;-69
2023/12/24 13:44:14;;;;;;;1.83;0.87;;;;;;;;;;4981468;28;20538;-69
2023/12/24 13:46:40;;;;;;;2.17;0.60;;;;;;;;;;4988900;28;20428;-69
2023/12/24 13:49:09;;;;;;;2.33;0.77;;;;;;;;;;4987936;28;20988;-69
2023/12/24 13:51:36;;;;;;;2.20;0.50;;;;;;;;;;4990010;28;20436;-70
2023/12/24 13:54:02;;;;;;;1.73;0.77;;;;;;;;;;4989394;28;20465;-69
2023/12/24 13:56:29;;;;;;;3.33;1.50;;;;;;;;;;4989983;28;20428;-69
2023/12/24 13:58:55;;;;;;;2.40;1.17;;;;;;;;;;4988689;28;20847;-68
2023/12/24 14:01:21;;;;;;;1.90;0.60;;;;;;;;;;4988502;28;20448;-68
2023/12/24 14:03:47;;;;;;;2.00;0.83;;;;;;;;;;4989392;28;20460;-69
2023/12/24 14:06:13;;;;;;;1.70;0.80;;;;;;;;;;4990194;28;20423;-68
2023/12/24 14:08:39;;;;;;;2.00;0.80;;;;;;;;;;4989987;28;20511;-68
2023/12/24 14:11:05;;;;;;;2.10;1.00;;;;;;;;;;4989178;28;20542;-68
2023/12/24 14:13:32;;;;;;;2.43;0.90;;;;;;;;;;4988431;28;20459;-69
2023/12/24 14:15:58;;;;;;;1.70;0.70;;;;;;;;;;4988329;28;20473;-69
2023/12/24 14:18:24;;;;;;;2.20;0.80;;;;;;;;;;4989037;28;20947;-68